Tawau, Malaysia
Current Conditions -  °F | °C
As of 6:00 AM on Sunday 21 Dec 2014 (Local Time) from WBKW Reporting Station
Broken Clouds Broken Clouds  
Wind Chill: 75°   Ceiling: 14000
Heat Index: 75°   Visibility: 6mi
Dew Point: 73°   Wind: 3mph
Humidity: 94%   Direction: 20°NNE
Pressure: 29.77"   Gusts: NA
Location:  4.26°N, 117.88°E
Report Text: WBKW 202200Z 02003KT 9999 FEW017 BKN140 24/23 Q1008
Loading
Personal Weather Stations






























Interactive Weather Map New forecast layout! Learn more

10-Day Weather Forecast

Advertisements
Track Severe Weather on mobile